Time;durP1;ratioP1;P1;durP2;ratioP2;P2;SDS_P1;SDS_P2;PMS_P1;PMS_P2;Temp;Humidity;BMP_temperature;BMP_pressure;BME280_temperature;BME280_humidity;BME280_pressure;Samples;Min_cycle;Max_cycle;Signal;HPM_P1;HPM_P2
2023/05/03 00:01:27;;;;;;;5.88;2.33;;;;;;;;;;5146022;27;20546;-60
2023/05/03 00:03:54;;;;;;;4.88;2.30;;;;;;;;;;5142000;27;20051;-59
2023/05/03 00:06:21;;;;;;;3.70;1.85;;;;;;;;;;5142953;27;20058;-61
2023/05/03 00:08:47;;;;;;;9.90;2.03;;;;;;;;;;5164520;27;20523;-60
2023/05/03 00:11:13;;;;;;;5.20;1.80;;;;;;;;;;5155117;27;20055;-60
2023/05/03 00:13:40;;;;;;;4.00;1.85;;;;;;;;;;5154579;27;20051;-60
2023/05/03 00:16:07;;;;;;;2.42;1.80;;;;;;;;;;5156442;27;20179;-59
2023/05/03 00:18:33;;;;;;;6.85;2.50;;;;;;;;;;5156734;27;20524;-60
2023/05/03 00:20:59;;;;;;;6.75;2.33;;;;;;;;;;5157188;27;20050;-58
2023/05/03 00:23:27;;;;;;;4.53;2.17;;;;;;;;;;5163362;27;20100;-60
2023/05/03 00:25:57;;;;;;;2.90;1.92;;;;;;;;;;5160284;27;20085;-60
2023/05/03 00:28:24;;;;;;;5.45;2.05;;;;;;;;;;5160373;27;20061;-60
2023/05/03 00:30:51;;;;;;;6.03;1.90;;;;;;;;;;5159826;27;20065;-60
2023/05/03 00:33:18;;;;;;;3.30;1.73;;;;;;;;;;5157087;27;20054;-60
2023/05/03 00:35:44;;;;;;;3.75;2.10;;;;;;;;;;5154167;27;20576;-60
2023/05/03 00:38:13;;;;;;;4.78;2.20;;;;;;;;;;5162795;27;20057;-60
2023/05/03 00:40:39;;;;;;;6.35;1.90;;;;;;;;;;5164763;27;20074;-61
2023/05/03 00:43:06;;;;;;;4.90;1.50;;;;;;;;;;5164585;27;20065;-60
2023/05/03 00:45:33;;;;;;;4.45;1.98;;;;;;;;;;5162755;27;20050;-60
2023/05/03 00:48:00;;;;;;;4.88;2.08;;;;;;;;;;5157378;27;20059;-60
2023/05/03 00:50:26;;;;;;;3.20;1.80;;;;;;;;;;5162563;27;20051;-59
2023/05/03 00:52:53;;;;;;;4.30;1.90;;;;;;;;;;5154572;27;20051;-60
2023/05/03 00:55:20;;;;;;;6.50;2.17;;;;;;;;;;5159530;27;20141;-59
2023/05/03 00:57:46;;;;;;;4.57;2.33;;;;;;;;;;5163849;27;20057;-60
2023/05/03 01:00:13;;;;;;;3.00;1.80;;;;;;;;;;5143408;27;20050;-58
2023/05/03 01:02:39;;;;;;;5.25;1.90;;;;;;;;;;5152354;27;20059;-58
2023/05/03 01:05:06;;;;;;;4.68;1.95;;;;;;;;;;5153265;27;20141;-60
2023/05/03 01:07:51;;;;;;;5.30;2.10;;;;;;;;;;5163952;27;20123;-60
2023/05/03 01:10:36;;;;;;;9.23;2.03;;;;;;;;;;5161300;27;20174;-60
2023/05/03 01:13:03;;;;;;;3.83;1.87;;;;;;;;;;5160162;27;20085;-60
2023/05/03 01:15:44;;;;;;;6.05;1.60;;;;;;;;;;5147956;27;20051;-60
2023/05/03 01:18:14;;;;;;;6.18;2.03;;;;;;;;;;5159725;27;20496;-60
2023/05/03 01:20:42;;;;;;;5.20;1.83;;;;;;;;;;5161272;27;20062;-59
2023/05/03 01:23:30;;;;;;;3.38;1.70;;;;;;;;;;5142703;27;20531;-58
2023/05/03 01:25:56;;;;;;;6.80;1.70;;;;;;;;;;5054681;28;20053;-60
2023/05/03 01:28:22;;;;;;;5.10;1.98;;;;;;;;;;5055655;28;20061;-60
2023/05/03 01:30:50;;;;;;;3.25;1.50;;;;;;;;;;5055056;28;20061;-59
2023/05/03 01:33:25;;;;;;;5.00;1.60;;;;;;;;;;5056001;28;20057;-60
2023/05/03 01:36:11;;;;;;;2.67;1.75;;;;;;;;;;5057935;28;20140;-61
2023/05/03 01:38:38;;;;;;;3.90;1.40;;;;;;;;;;5045768;28;20071;-60
2023/05/03 01:41:07;;;;;;;5.63;2.00;;;;;;;;;;5055627;28;20147;-60
2023/05/03 01:43:35;;;;;;;4.13;1.60;;;;;;;;;;5058048;28;20105;-60
2023/05/03 01:46:01;;;;;;;3.90;1.92;;;;;;;;;;5056753;28;20613;-60
2023/05/03 01:48:28;;;;;;;3.38;1.90;;;;;;;;;;5055565;28;20060;-60
2023/05/03 01:50:54;;;;;;;4.40;1.90;;;;;;;;;;5051647;28;20543;-60
2023/05/03 01:53:21;;;;;;;6.07;1.92;;;;;;;;;;5040872;28;20057;-58
2023/05/03 01:55:47;;;;;;;7.20;2.25;;;;;;;;;;5057726;28;20140;-60
2023/05/03 01:58:13;;;;;;;8.07;2.08;;;;;;;;;;5057088;28;20140;-58
2023/05/03 02:00:40;;;;;;;6.65;2.28;;;;;;;;;;5054801;28;20164;-60
2023/05/03 02:03:06;;;;;;;4.38;2.55;;;;;;;;;;5107092;27;20055;-59
2023/05/03 02:05:33;;;;;;;9.45;1.80;;;;;;;;;;5160249;27;20107;-58
2023/05/03 02:08:00;;;;;;;5.93;2.13;;;;;;;;;;5162010;27;20057;-58
2023/05/03 02:10:26;;;;;;;5.63;2.00;;;;;;;;;;5139948;27;20909;-59
2023/05/03 02:12:52;;;;;;;9.18;2.00;;;;;;;;;;5163392;27;20051;-60
2023/05/03 02:15:19;;;;;;;5.07;1.70;;;;;;;;;;5150419;27;20051;-60
2023/05/03 02:17:48;;;;;;;5.68;1.88;;;;;;;;;;5151647;27;20070;-60
2023/05/03 02:20:15;;;;;;;7.38;2.00;;;;;;;;;;5161069;27;20055;-57
2023/05/03 02:22:41;;;;;;;3.40;2.00;;;;;;;;;;5160284;27;20521;-58
2023/05/03 02:25:07;;;;;;;6.95;2.10;;;;;;;;;;5153396;27;20085;-60
2023/05/03 02:27:34;;;;;;;6.07;2.00;;;;;;;;;;5152793;27;20061;-59
2023/05/03 02:30:01;;;;;;;3.50;1.90;;;;;;;;;;5120343;27;20097;-61
2023/05/03 02:32:29;;;;;;;4.03;1.88;;;;;;;;;;5156055;27;20061;-58
2023/05/03 02:34:56;;;;;;;2.05;1.70;;;;;;;;;;5151411;27;20054;-60
2023/05/03 02:37:22;;;;;;;7.38;2.50;;;;;;;;;;5153274;27;20059;-60
2023/05/03 02:39:48;;;;;;;5.65;1.90;;;;;;;;;;5155940;27;20433;-60
2023/05/03 02:42:15;;;;;;;4.47;1.83;;;;;;;;;;5158539;27;20150;-60
2023/05/03 02:44:41;;;;;;;6.65;2.03;;;;;;;;;;5157617;27;20047;-60
2023/05/03 02:47:08;;;;;;;4.20;1.95;;;;;;;;;;5158323;27;20058;-60
2023/05/03 02:49:34;;;;;;;4.40;1.83;;;;;;;;;;5161249;27;20588;-59
2023/05/03 02:52:00;;;;;;;6.80;1.98;;;;;;;;;;5156526;27;20054;-60
2023/05/03 02:54:27;;;;;;;3.80;1.55;;;;;;;;;;5165513;27;20065;-59
2023/05/03 02:56:54;;;;;;;4.18;1.60;;;;;;;;;;5165549;27;20046;-60
2023/05/03 02:59:20;;;;;;;5.88;1.70;;;;;;;;;;5162284;27;20086;-60
2023/05/03 03:01:48;;;;;;;4.38;2.15;;;;;;;;;;5160290;27;20074;-60
2023/05/03 03:04:14;;;;;;;3.72;2.00;;;;;;;;;;5166395;27;20050;-60
2023/05/03 03:06:41;;;;;;;3.47;1.80;;;;;;;;;;5163743;27;20058;-60
2023/05/03 03:09:07;;;;;;;6.78;1.95;;;;;;;;;;5165314;27;20154;-60
2023/05/03 03:11:34;;;;;;;2.55;1.50;;;;;;;;;;5165400;27;20055;-59
2023/05/03 03:14:00;;;;;;;6.05;2.10;;;;;;;;;;5163908;27;20061;-59
2023/05/03 03:16:26;;;;;;;4.15;2.00;;;;;;;;;;5163678;27;20598;-59
2023/05/03 03:18:53;;;;;;;8.90;2.00;;;;;;;;;;5166356;27;20556;-59
2023/05/03 03:21:19;;;;;;;5.05;2.20;;;;;;;;;;5165435;27;20142;-60
2023/05/03 03:23:46;;;;;;;8.30;3.08;;;;;;;;;;5164478;27;20329;-59
2023/05/03 03:26:12;;;;;;;2.83;1.92;;;;;;;;;;5165118;27;20146;-58
2023/05/03 03:28:38;;;;;;;5.05;1.98;;;;;;;;;;5157957;27;20047;-60
2023/05/03 03:31:05;;;;;;;6.45;2.22;;;;;;;;;;5166554;27;20179;-59
2023/05/03 03:33:31;;;;;;;3.53;1.80;;;;;;;;;;5165551;27;20051;-60
2023/05/03 03:35:58;;;;;;;2.72;1.90;;;;;;;;;;5165078;27;20053;-60
2023/05/03 03:38:25;;;;;;;5.85;1.70;;;;;;;;;;5140775;27;20449;-60
2023/05/03 03:40:53;;;;;;;3.50;2.05;;;;;;;;;;5165416;27;20529;-60
2023/05/03 03:43:19;;;;;;;5.03;1.80;;;;;;;;;;5165070;27;20066;-56
2023/05/03 03:45:45;;;;;;;1.70;1.60;;;;;;;;;;5161651;27;20061;-58
2023/05/03 03:48:12;;;;;;;3.45;1.60;;;;;;;;;;5144567;27;20304;-60
2023/05/03 03:50:38;;;;;;;6.43;2.00;;;;;;;;;;5159763;27;20054;-59
2023/05/03 03:53:05;;;;;;;5.07;1.90;;;;;;;;;;5165117;27;20134;-59
2023/05/03 03:55:31;;;;;;;4.15;1.48;;;;;;;;;;5156395;27;20096;-59
2023/05/03 03:57:58;;;;;;;4.85;1.92;;;;;;;;;;5151102;27;20188;-60
2023/05/03 04:00:25;;;;;;;4.75;1.77;;;;;;;;;;5156400;27;20438;-60
2023/05/03 04:02:52;;;;;;;5.07;1.90;;;;;;;;;;5164801;27;20604;-60
2023/05/03 04:05:18;;;;;;;5.28;2.00;;;;;;;;;;5165048;27;20499;-60
2023/05/03 04:07:45;;;;;;;2.03;1.80;;;;;;;;;;5149206;27;20107;-60
2023/05/03 04:10:11;;;;;;;4.47;2.20;;;;;;;;;;5164620;27;20127;-58
2023/05/03 04:12:38;;;;;;;5.57;2.08;;;;;;;;;;5164377;27;20123;-60
2023/05/03 04:15:05;;;;;;;4.80;1.73;;;;;;;;;;5163632;27;20606;-60
2023/05/03 04:17:33;;;;;;;4.88;1.90;;;;;;;;;;5164569;27;20062;-60
2023/05/03 04:20:05;;;;;;;6.75;2.15;;;;;;;;;;5165795;27;20063;-59
2023/05/03 04:22:32;;;;;;;3.25;2.20;;;;;;;;;;5162942;27;20046;-59
2023/05/03 04:25:02;;;;;;;5.38;2.10;;;;;;;;;;5163254;27;20410;-58
2023/05/03 04:27:29;;;;;;;6.03;2.03;;;;;;;;;;5156274;27;20590;-59
2023/05/03 04:29:56;;;;;;;10.05;2.00;;;;;;;;;;5162364;27;20055;-60
2023/05/03 04:32:23;;;;;;;5.13;2.47;;;;;;;;;;5176006;27;20057;-60
2023/05/03 04:34:51;;;;;;;5.32;2.33;;;;;;;;;;5164821;27;20053;-60
2023/05/03 04:37:19;;;;;;;4.85;2.10;;;;;;;;;;5160125;27;20467;-58
2023/05/03 04:39:45;;;;;;;2.70;1.90;;;;;;;;;;5162908;27;20057;-60
2023/05/03 04:42:15;;;;;;;2.90;1.90;;;;;;;;;;5163090;27;20490;-61
2023/05/03 04:44:41;;;;;;;3.53;2.25;;;;;;;;;;5161823;27;20058;-60
2023/05/03 04:47:08;;;;;;;4.47;2.50;;;;;;;;;;5161351;27;20122;-60
2023/05/03 04:49:34;;;;;;;3.40;2.13;;;;;;;;;;5162385;27;20047;-59
2023/05/03 04:52:01;;;;;;;5.22;2.45;;;;;;;;;;5160660;27;20142;-59
2023/05/03 04:54:27;;;;;;;2.75;1.75;;;;;;;;;;5165311;27;20047;-59
2023/05/03 04:56:55;;;;;;;8.02;2.35;;;;;;;;;;5160960;27;20067;-59
2023/05/03 04:59:21;;;;;;;7.40;2.15;;;;;;;;;;5164702;27;20526;-60
2023/05/03 05:01:48;;;;;;;7.75;2.72;;;;;;;;;;5159431;27;20050;-60
2023/05/03 05:04:15;;;;;;;7.72;2.30;;;;;;;;;;5161821;27;20500;-60
2023/05/03 05:06:41;;;;;;;9.55;2.83;;;;;;;;;;5165145;27;20055;-57
2023/05/03 05:09:18;;;;;;;2.70;1.95;;;;;;;;;;5150251;27;20324;-60
2023/05/03 05:11:45;;;;;;;4.97;2.40;;;;;;;;;;5158553;27;20104;-61
2023/05/03 05:14:11;;;;;;;2.92;1.95;;;;;;;;;;5164453;27;20042;-60
2023/05/03 05:16:38;;;;;;;6.60;2.45;;;;;;;;;;5157308;27;20381;-60
2023/05/03 05:19:05;;;;;;;11.38;3.53;;;;;;;;;;5164770;27;20061;-59
2023/05/03 05:21:31;;;;;;;6.40;2.50;;;;;;;;;;5163935;27;20127;-60
2023/05/03 05:23:57;;;;;;;7.57;2.42;;;;;;;;;;5163421;27;20130;-59
2023/05/03 05:26:25;;;;;;;5.07;2.58;;;;;;;;;;5162811;27;20061;-60
2023/05/03 05:28:52;;;;;;;5.28;2.40;;;;;;;;;;5163402;27;20118;-60
2023/05/03 05:31:18;;;;;;;4.30;2.05;;;;;;;;;;5162778;27;20054;-60
2023/05/03 05:33:45;;;;;;;4.85;2.22;;;;;;;;;;5164118;27;20047;-59
2023/05/03 05:36:12;;;;;;;6.82;2.55;;;;;;;;;;5161904;27;20059;-60
2023/05/03 05:38:39;;;;;;;4.43;2.47;;;;;;;;;;5147862;27;20058;-60
2023/05/03 05:41:05;;;;;;;3.78;2.50;;;;;;;;;;5164801;27;20057;-60
2023/05/03 05:43:32;;;;;;;2.53;2.05;;;;;;;;;;5163345;27;20054;-59
2023/05/03 05:45:59;;;;;;;5.22;2.13;;;;;;;;;;5163085;27;20061;-60
2023/05/03 05:48:25;;;;;;;6.85;2.40;;;;;;;;;;5162907;27;20054;-60
2023/05/03 05:50:52;;;;;;;4.97;2.28;;;;;;;;;;5156637;27;20053;-58
2023/05/03 05:53:18;;;;;;;3.83;2.28;;;;;;;;;;5132652;27;20649;-59
2023/05/03 05:55:45;;;;;;;9.05;2.97;;;;;;;;;;5159729;27;20606;-60
2023/05/03 05:58:12;;;;;;;7.97;2.30;;;;;;;;;;5157198;27;20541;-59
2023/05/03 06:00:39;;;;;;;9.75;1.95;;;;;;;;;;5156934;27;20168;-60
2023/05/03 06:03:06;;;;;;;2.03;1.52;;;;;;;;;;5153292;27;20688;-60
2023/05/03 06:05:32;;;;;;;3.72;1.88;;;;;;;;;;5161519;27;20474;-60
2023/05/03 06:07:59;;;;;;;4.63;1.83;;;;;;;;;;5160273;27;20076;-60
2023/05/03 06:10:25;;;;;;;3.33;1.90;;;;;;;;;;5162840;27;20050;-61
2023/05/03 06:12:52;;;;;;;2.92;1.70;;;;;;;;;;5158081;27;20153;-60
2023/05/03 06:15:18;;;;;;;2.13;1.60;;;;;;;;;;5167152;27;21097;-59
2023/05/03 06:17:45;;;;;;;4.47;1.75;;;;;;;;;;5155057;27;20062;-59
2023/05/03 06:20:12;;;;;;;6.72;2.10;;;;;;;;;;5156572;27;20057;-58
2023/05/03 06:22:39;;;;;;;4.70;1.92;;;;;;;;;;5165535;27;20391;-59
2023/05/03 06:25:08;;;;;;;8.93;1.60;;;;;;;;;;5161771;27;20058;-61
2023/05/03 06:27:35;;;;;;;1.40;1.30;;;;;;;;;;5161619;27;20134;-60
2023/05/03 06:30:02;;;;;;;3.60;1.85;;;;;;;;;;5160831;27;20055;-60
2023/05/03 06:32:29;;;;;;;3.00;1.98;;;;;;;;;;5160481;27;20061;-59
2023/05/03 06:34:58;;;;;;;7.70;1.92;;;;;;;;;;5146624;27;20140;-60
2023/05/03 06:37:25;;;;;;;2.08;1.88;;;;;;;;;;5157299;27;20562;-60
2023/05/03 06:39:51;;;;;;;2.78;1.90;;;;;;;;;;5147434;27;20078;-59
2023/05/03 06:42:17;;;;;;;5.60;2.00;;;;;;;;;;5161433;27;20066;-60
2023/05/03 06:44:44;;;;;;;3.10;1.60;;;;;;;;;;5139058;27;20528;-59
2023/05/03 06:47:10;;;;;;;5.05;1.80;;;;;;;;;;5153931;27;20496;-60
2023/05/03 06:49:37;;;;;;;3.47;2.00;;;;;;;;;;5167107;27;20470;-60
2023/05/03 06:52:03;;;;;;;3.92;1.60;;;;;;;;;;5166944;27;20567;-60
2023/05/03 06:54:29;;;;;;;2.03;1.80;;;;;;;;;;5164847;27;20138;-59
2023/05/03 06:56:56;;;;;;;4.22;1.80;;;;;;;;;;5166948;27;20051;-60
2023/05/03 06:59:23;;;;;;;2.75;1.88;;;;;;;;;;5153021;27;20091;-60
2023/05/03 07:01:50;;;;;;;5.40;2.10;;;;;;;;;;5145798;27;20544;-60
2023/05/03 07:04:16;;;;;;;3.13;1.67;;;;;;;;;;5158618;27;20054;-60
2023/05/03 07:06:43;;;;;;;4.95;1.70;;;;;;;;;;5165049;27;20050;-60
2023/05/03 07:09:21;;;;;;;5.45;1.60;;;;;;;;;;5159234;27;20492;-60
2023/05/03 07:12:07;;;;;;;3.15;1.58;;;;;;;;;;5140484;27;20061;-61
2023/05/03 07:14:34;;;;;;;1.98;1.42;;;;;;;;;;5166583;27;20381;-61
2023/05/03 07:17:01;;;;;;;6.68;1.58;;;;;;;;;;5165650;27;20074;-60
2023/05/03 07:19:28;;;;;;;2.20;1.40;;;;;;;;;;5153314;27;20051;-60
2023/05/03 07:21:55;;;;;;;3.97;1.23;;;;;;;;;;5164274;27;20402;-61
2023/05/03 07:24:23;;;;;;;8.45;1.65;;;;;;;;;;5160049;27;20134;-60
2023/05/03 07:26:50;;;;;;;2.92;1.52;;;;;;;;;;5159477;27;20138;-60
2023/05/03 07:29:16;;;;;;;4.32;1.58;;;;;;;;;;5157464;27;20089;-60
2023/05/03 07:31:43;;;;;;;4.18;1.60;;;;;;;;;;5167374;27;20163;-59
2023/05/03 07:34:10;;;;;;;4.32;1.50;;;;;;;;;;5165622;27;20051;-60
2023/05/03 07:36:37;;;;;;;5.93;1.50;;;;;;;;;;5166573;27;20054;-60
2023/05/03 07:39:03;;;;;;;2.80;1.15;;;;;;;;;;5156624;27;20063;-58
2023/05/03 07:41:30;;;;;;;6.75;1.55;;;;;;;;;;5163988;27;20589;-59
2023/05/03 07:43:57;;;;;;;3.47;1.50;;;;;;;;;;5165814;27;20051;-60
2023/05/03 07:46:23;;;;;;;4.55;1.50;;;;;;;;;;5165788;27;20047;-61
2023/05/03 07:48:50;;;;;;;3.90;1.77;;;;;;;;;;5164103;27;20054;-60
2023/05/03 07:51:16;;;;;;;5.05;1.50;;;;;;;;;;5161555;27;20055;-61
2023/05/03 07:53:43;;;;;;;4.20;1.50;;;;;;;;;;5162806;27;20043;-60
2023/05/03 07:56:10;;;;;;;5.07;1.25;;;;;;;;;;5166367;27;20055;-61
2023/05/03 07:58:36;;;;;;;2.72;1.55;;;;;;;;;;5152129;27;20058;-60
2023/05/03 08:01:06;;;;;;;3.70;1.15;;;;;;;;;;5166267;27;20050;-60
2023/05/03 08:03:32;;;;;;;3.03;1.50;;;;;;;;;;5153533;27;20581;-58
2023/05/03 08:05:59;;;;;;;1.38;1.27;;;;;;;;;;5163690;27;20046;-58
2023/05/03 08:08:26;;;;;;;2.72;1.50;;;;;;;;;;5162593;27;20046;-58
2023/05/03 08:10:53;;;;;;;1.95;1.30;;;;;;;;;;5145464;27;20493;-59
2023/05/03 08:13:21;;;;;;;3.03;1.63;;;;;;;;;;5179851;27;20559;-60
2023/05/03 08:15:48;;;;;;;2.00;1.35;;;;;;;;;;5164914;27;20134;-60
2023/05/03 08:18:14;;;;;;;3.72;1.42;;;;;;;;;;5165207;27;20059;-60
2023/05/03 08:20:42;;;;;;;7.97;1.92;;;;;;;;;;5144739;27;20518;-59
2023/05/03 08:23:10;;;;;;;3.80;1.60;;;;;;;;;;5160458;27;20054;-59
2023/05/03 08:25:36;;;;;;;6.22;1.58;;;;;;;;;;5160768;27;20062;-60
2023/05/03 08:28:03;;;;;;;6.35;1.48;;;;;;;;;;5146570;27;20047;-59
2023/05/03 08:30:30;;;;;;;3.78;1.67;;;;;;;;;;5166486;27;20551;-61
2023/05/03 08:32:56;;;;;;;4.10;1.83;;;;;;;;;;5160680;27;20054;-60
2023/05/03 08:35:23;;;;;;;2.80;1.80;;;;;;;;;;5144055;27;20511;-60
2023/05/03 08:37:49;;;;;;;5.10;2.17;;;;;;;;;;5144106;27;20059;-60
2023/05/03 08:40:16;;;;;;;4.05;1.75;;;;;;;;;;5136107;27;20051;-59
2023/05/03 08:42:44;;;;;;;8.35;3.63;;;;;;;;;;5157736;27;20060;-60
2023/05/03 08:45:14;;;;;;;1.88;1.17;;;;;;;;;;5153644;27;20589;-59
2023/05/03 08:47:43;;;;;;;3.40;1.80;;;;;;;;;;5166215;27;20042;-60
2023/05/03 08:50:11;;;;;;;3.80;1.70;;;;;;;;;;5159129;27;20124;-59
2023/05/03 08:52:41;;;;;;;3.72;1.52;;;;;;;;;;5164690;27;20487;-61
2023/05/03 08:55:09;;;;;;;4.05;1.70;;;;;;;;;;5160870;27;20056;-59
2023/05/03 08:57:35;;;;;;;3.33;1.77;;;;;;;;;;5154623;27;20051;-60
2023/05/03 09:00:05;;;;;;;2.45;1.50;;;;;;;;;;5160675;27;20050;-60
2023/05/03 09:02:37;;;;;;;4.88;1.88;;;;;;;;;;5162248;27;20055;-60
2023/05/03 09:05:05;;;;;;;2.42;1.50;;;;;;;;;;5156916;27;20050;-61
2023/05/03 09:07:32;;;;;;;6.40;1.80;;;;;;;;;;5162483;27;20062;-58
2023/05/03 09:09:59;;;;;;;8.35;2.75;;;;;;;;;;5162038;27;20074;-60
2023/05/03 09:12:33;;;;;;;2.42;1.75;;;;;;;;;;5165469;27;20839;-60
2023/05/03 09:15:00;;;;;;;1.67;1.40;;;;;;;;;;5160793;27;20493;-61
2023/05/03 09:17:26;;;;;;;4.07;1.50;;;;;;;;;;5164502;27;20076;-60
2023/05/03 09:19:54;;;;;;;2.22;1.83;;;;;;;;;;5157822;27;20042;-60
2023/05/03 09:22:27;;;;;;;2.38;1.65;;;;;;;;;;5158957;27;20057;-60
2023/05/03 09:24:55;;;;;;;5.70;1.52;;;;;;;;;;5160718;27;20469;-60
2023/05/03 09:27:22;;;;;;;2.47;1.52;;;;;;;;;;5150848;27;20047;-60
2023/05/03 09:29:49;;;;;;;3.53;1.90;;;;;;;;;;5155995;27;20127;-60
2023/05/03 09:32:16;;;;;;;2.88;1.95;;;;;;;;;;5152607;27;20051;-61
2023/05/03 09:34:43;;;;;;;3.92;2.28;;;;;;;;;;5140486;27;20055;-60
2023/05/03 09:37:09;;;;;;;4.93;1.60;;;;;;;;;;5160931;27;20058;-60
2023/05/03 09:39:36;;;;;;;3.80;1.73;;;;;;;;;;5151413;27;20053;-60
2023/05/03 09:42:09;;;;;;;5.50;1.80;;;;;;;;;;5161465;27;20058;-60
2023/05/03 09:44:42;;;;;;;2.47;1.48;;;;;;;;;;5156290;27;20057;-60
2023/05/03 09:47:09;;;;;;;5.15;1.55;;;;;;;;;;5143033;27;20529;-61
2023/05/03 09:49:36;;;;;;;2.20;1.55;;;;;;;;;;5152441;27;20050;-61
2023/05/03 09:52:03;;;;;;;6.28;2.85;;;;;;;;;;5142175;27;20051;-61
2023/05/03 09:54:39;;;;;;;4.35;2.22;;;;;;;;;;5152205;27;20471;-60
2023/05/03 09:57:06;;;;;;;2.80;1.70;;;;;;;;;;5146649;27;20079;-60
2023/05/03 09:59:34;;;;;;;3.38;1.40;;;;;;;;;;5164563;27;20058;-60
2023/05/03 10:02:01;;;;;;;2.45;1.70;;;;;;;;;;5168206;27;20054;-61
2023/05/03 10:04:32;;;;;;;8.13;1.95;;;;;;;;;;5168301;27;20054;-60
2023/05/03 10:07:01;;;;;;;5.57;2.33;;;;;;;;;;5143181;27;20515;-61
2023/05/03 10:09:34;;;;;;;4.72;2.10;;;;;;;;;;5166491;27;20129;-60
2023/05/03 10:12:03;;;;;;;3.78;1.65;;;;;;;;;;5163774;27;20658;-61
2023/05/03 10:14:30;;;;;;;4.07;2.05;;;;;;;;;;5160580;27;20070;-60
2023/05/03 10:17:07;;;;;;;5.78;2.05;;;;;;;;;;5166919;27;20099;-60
2023/05/03 10:19:36;;;;;;;3.17;1.75;;;;;;;;;;5162132;27;20126;-61
2023/05/03 10:22:04;;;;;;;4.00;1.70;;;;;;;;;;5166376;27;20129;-61
2023/05/03 10:24:31;;;;;;;5.63;2.22;;;;;;;;;;5154235;27;20134;-61
2023/05/03 10:26:58;;;;;;;2.45;1.77;;;;;;;;;;5164883;27;20138;-62
2023/05/03 10:29:30;;;;;;;6.57;1.92;;;;;;;;;;5165686;27;20082;-62
2023/05/03 10:31:56;;;;;;;6.95;1.50;;;;;;;;;;5167642;27;20492;-62
2023/05/03 10:34:24;;;;;;;2.85;1.50;;;;;;;;;;5163414;27;20051;-62
2023/05/03 10:36:53;;;;;;;3.22;1.77;;;;;;;;;;5152103;27;20108;-62
2023/05/03 10:39:20;;;;;;;5.40;1.85;;;;;;;;;;5146858;27;20074;-63
2023/05/03 10:41:57;;;;;;;4.88;1.83;;;;;;;;;;5146686;27;20063;-61
2023/05/03 10:44:25;;;;;;;2.70;1.65;;;;;;;;;;5166968;27;20051;-63
2023/05/03 10:46:52;;;;;;;2.38;1.55;;;;;;;;;;5167320;27;20578;-60
2023/05/03 10:49:20;;;;;;;3.92;2.03;;;;;;;;;;5147127;27;20499;-60
2023/05/03 10:51:46;;;;;;;4.30;2.28;;;;;;;;;;5166662;27;20463;-63
2023/05/03 10:54:13;;;;;;;4.95;1.67;;;;;;;;;;5163864;27;20043;-63
2023/05/03 10:56:46;;;;;;;2.65;1.52;;;;;;;;;;5133661;27;20058;-60
2023/05/03 10:59:12;;;;;;;3.00;1.95;;;;;;;;;;5162218;27;20055;-60
2023/05/03 11:01:40;;;;;;;5.30;1.90;;;;;;;;;;5164434;27;20055;-63
2023/05/03 11:04:11;;;;;;;6.75;1.83;;;;;;;;;;5163425;27;20058;-60
2023/05/03 11:06:39;;;;;;;4.65;1.75;;;;;;;;;;5167185;27;20054;-60
2023/05/03 11:09:07;;;;;;;4.78;2.20;;;;;;;;;;5165900;27;20058;-60
2023/05/03 11:11:35;;;;;;;2.60;1.73;;;;;;;;;;5166847;27;20150;-60
2023/05/03 11:14:02;;;;;;;8.45;2.20;;;;;;;;;;5150838;27;20142;-62
2023/05/03 11:16:29;;;;;;;4.80;1.70;;;;;;;;;;5150047;27;20135;-63
2023/05/03 11:18:56;;;;;;;1.80;1.50;;;;;;;;;;5152815;27;20046;-63
2023/05/03 11:21:24;;;;;;;6.43;2.35;;;;;;;;;;5166377;27;20679;-63
2023/05/03 11:23:50;;;;;;;4.18;2.05;;;;;;;;;;5160179;27;20050;-63
2023/05/03 11:26:17;;;;;;;4.82;1.90;;;;;;;;;;5164585;27;20054;-62
2023/05/03 11:28:44;;;;;;;3.15;2.35;;;;;;;;;;5146406;27;20043;-63
2023/05/03 11:31:12;;;;;;;2.72;1.85;;;;;;;;;;5166690;27;20051;-62
2023/05/03 11:33:39;;;;;;;4.88;2.03;;;;;;;;;;5146113;27;20043;-63
2023/05/03 11:36:07;;;;;;;3.42;2.00;;;;;;;;;;5163949;27;20137;-63
2023/05/03 11:38:34;;;;;;;7.18;2.15;;;;;;;;;;5157366;27;20099;-62
2023/05/03 11:41:08;;;;;;;2.85;2.20;;;;;;;;;;5162404;27;20054;-63
2023/05/03 11:43:39;;;;;;;3.10;1.70;;;;;;;;;;5164390;27;20168;-62
2023/05/03 11:46:07;;;;;;;2.17;1.60;;;;;;;;;;5159387;27;20073;-62
2023/05/03 11:48:34;;;;;;;2.95;1.80;;;;;;;;;;5153869;27;20055;-62
2023/05/03 11:51:05;;;;;;;2.53;1.90;;;;;;;;;;5165568;27;20053;-62
2023/05/03 11:53:32;;;;;;;3.20;1.58;;;;;;;;;;5166066;27;20516;-62
2023/05/03 11:55:59;;;;;;;3.40;1.90;;;;;;;;;;5146701;27;20564;-62
2023/05/03 11:58:26;;;;;;;5.75;2.15;;;;;;;;;;5156616;27;20142;-61
2023/05/03 12:00:54;;;;;;;7.43;1.95;;;;;;;;;;5165982;27;20050;-62
2023/05/03 12:03:31;;;;;;;6.13;1.90;;;;;;;;;;5159847;27;20322;-62
2023/05/03 12:05:59;;;;;;;3.38;1.95;;;;;;;;;;5148713;27;20482;-62
2023/05/03 12:08:29;;;;;;;6.03;2.20;;;;;;;;;;5164868;27;20051;-62
2023/05/03 12:11:00;;;;;;;2.75;1.98;;;;;;;;;;5178432;27;20054;-62
2023/05/03 12:13:34;;;;;;;6.80;2.13;;;;;;;;;;5175772;27;20047;-62
2023/05/03 12:16:04;;;;;;;6.53;2.58;;;;;;;;;;5157578;27;20051;-62
2023/05/03 12:18:39;;;;;;;;;;;;;;;;;;5156956;27;20231;-62
2023/05/03 12:21:06;;;;;;;8.55;2.17;;;;;;;;;;5149808;27;46067;-61
2023/05/03 12:23:52;;;;;;;3.60;1.80;;;;;;;;;;5154750;27;20514;-62
2023/05/03 12:26:22;;;;;;;3.40;2.15;;;;;;;;;;5157128;27;20058;-62
2023/05/03 12:28:48;;;;;;;2.63;1.88;;;;;;;;;;5161610;27;20054;-62
2023/05/03 12:31:16;;;;;;;6.55;2.30;;;;;;;;;;5158939;27;20054;-62
2023/05/03 12:33:43;;;;;;;6.00;2.30;;;;;;;;;;5164595;27;20458;-62
2023/05/03 12:36:33;;;;;;;5.70;2.05;;;;;;;;;;5158320;27;20062;-62
2023/05/03 12:39:03;;;;;;;2.72;2.00;;;;;;;;;;5156479;27;20156;-62
2023/05/03 12:41:34;;;;;;;3.65;2.03;;;;;;;;;;5163072;27;20137;-61
2023/05/03 12:44:21;;;;;;;2.63;1.80;;;;;;;;;;5152615;27;20055;-60
2023/05/03 12:46:49;;;;;;;4.18;2.38;;;;;;;;;;5164182;27;20055;-60
2023/05/03 12:49:18;;;;;;;2.40;1.42;;;;;;;;;;5152682;27;20466;-61
2023/05/03 12:51:45;;;;;;;4.32;2.05;;;;;;;;;;5144635;27;20089;-61
2023/05/03 12:54:28;;;;;;;6.03;2.17;;;;;;;;;;5154625;27;20548;-62
2023/05/03 12:57:02;;;;;;;3.92;2.35;;;;;;;;;;5161387;27;20512;-62
2023/05/03 12:59:34;;;;;;;5.93;2.55;;;;;;;;;;5158364;27;20133;-61
2023/05/03 13:02:11;;;;;;;5.85;2.20;;;;;;;;;;5145696;27;20050;-62
2023/05/03 13:04:40;;;;;;;4.00;2.10;;;;;;;;;;5158863;27;20138;-60
2023/05/03 13:07:13;;;;;;;6.28;2.65;;;;;;;;;;5152996;27;20505;-62
2023/05/03 13:09:40;;;;;;;8.48;2.45;;;;;;;;;;5156468;27;20067;-63
2023/05/03 13:12:26;;;;;;;2.30;1.52;;;;;;;;;;5165159;27;20061;-33
2023/05/03 13:14:56;;;;;;;13.18;2.95;;;;;;;;;;5155020;27;20047;-37
2023/05/03 13:17:22;;;;;;;5.88;2.75;;;;;;;;;;5144191;27;20084;-35
2023/05/03 13:19:49;;;;;;;7.97;3.08;;;;;;;;;;5155260;27;20057;-59
2023/05/03 13:22:16;;;;;;;6.18;2.28;;;;;;;;;;5162437;27;20137;-59
2023/05/03 13:24:43;;;;;;;5.88;2.60;;;;;;;;;;5158550;27;20078;-60
2023/05/03 13:27:10;;;;;;;3.53;2.45;;;;;;;;;;5164992;27;20055;-65
2023/05/03 13:29:37;;;;;;;3.03;2.40;;;;;;;;;;5161978;27;20043;-61
2023/05/03 13:32:04;;;;;;;4.65;2.20;;;;;;;;;;5164422;27;20089;-61
2023/05/03 13:34:30;;;;;;;4.60;2.75;;;;;;;;;;5146112;27;20135;-61
2023/05/03 13:36:57;;;;;;;5.40;2.47;;;;;;;;;;5162636;27;20532;-62
2023/05/03 13:39:24;;;;;;;5.43;2.90;;;;;;;;;;5159270;27;20053;-61
2023/05/03 13:41:51;;;;;;;3.38;2.58;;;;;;;;;;5164815;27;20512;-61
2023/05/03 13:44:18;;;;;;;6.43;2.20;;;;;;;;;;5155819;27;20061;-62
2023/05/03 13:46:44;;;;;;;2.92;2.63;;;;;;;;;;5146199;27;20050;-62
2023/05/03 13:49:11;;;;;;;3.47;2.33;;;;;;;;;;5159913;27;20051;-62
2023/05/03 13:51:37;;;;;;;5.85;3.17;;;;;;;;;;5165991;27;20683;-63
2023/05/03 13:54:04;;;;;;;3.97;2.90;;;;;;;;;;5145931;27;20063;-61
2023/05/03 13:56:31;;;;;;;7.22;2.83;;;;;;;;;;5148461;27;20054;-62
2023/05/03 13:58:58;;;;;;;6.75;2.75;;;;;;;;;;5160115;27;20055;-62
2023/05/03 14:01:25;;;;;;;3.88;2.42;;;;;;;;;;5143243;27;20051;-62
2023/05/03 14:03:52;;;;;;;4.43;3.05;;;;;;;;;;5149351;27;20054;-63
2023/05/03 14:06:19;;;;;;;6.20;2.65;;;;;;;;;;5164456;27;20051;-62
2023/05/03 14:08:46;;;;;;;6.15;2.70;;;;;;;;;;5163848;27;20489;-62
2023/05/03 14:11:13;;;;;;;5.35;2.50;;;;;;;;;;5144124;27;20501;-61
2023/05/03 14:13:40;;;;;;;5.65;2.58;;;;;;;;;;5144952;27;20051;-62
2023/05/03 14:16:22;;;;;;;8.65;3.33;;;;;;;;;;5164098;27;20078;-62
2023/05/03 14:19:06;;;;;;;7.13;2.63;;;;;;;;;;5150314;27;20604;-62
2023/05/03 14:21:33;;;;;;;5.95;2.70;;;;;;;;;;5155810;27;20108;-62
2023/05/03 14:24:00;;;;;;;5.68;3.20;;;;;;;;;;5147981;27;20055;-49
2023/05/03 14:26:28;;;;;;;4.53;2.70;;;;;;;;;;5156563;27;20057;-61
2023/05/03 14:28:54;;;;;;;4.65;2.70;;;;;;;;;;5156661;27;20048;-61
2023/05/03 14:31:21;;;;;;;3.67;2.65;;;;;;;;;;5147379;27;20112;-62
2023/05/03 14:33:47;;;;;;;6.32;2.92;;;;;;;;;;5148850;27;20055;-62
2023/05/03 14:36:14;;;;;;;5.60;3.10;;;;;;;;;;5155028;27;20491;-61
2023/05/03 14:38:40;;;;;;;4.90;2.65;;;;;;;;;;5160385;27;20497;-61
2023/05/03 14:41:08;;;;;;;5.35;2.85;;;;;;;;;;5149356;27;20417;-62
2023/05/03 14:43:34;;;;;;;4.13;2.88;;;;;;;;;;5170593;27;20489;-61
2023/05/03 14:46:01;;;;;;;4.15;2.88;;;;;;;;;;5163164;27;20500;-61
2023/05/03 14:48:27;;;;;;;5.68;2.72;;;;;;;;;;5146130;27;20047;-62